createdAt,value
2023-05-14T00:01:33.009Z,11.04
2023-05-14T00:04:00.769Z,11.03
2023-05-14T00:06:27.948Z,10.98
2023-05-14T00:08:55.053Z,10.91
2023-05-14T00:11:22.355Z,10.81
2023-05-14T00:13:50.340Z,10.82
2023-05-14T00:16:17.442Z,10.80
2023-05-14T00:18:44.786Z,10.77
2023-05-14T00:21:12.068Z,10.73
2023-05-14T00:23:39.127Z,10.70
2023-05-14T00:26:06.470Z,10.70
2023-05-14T00:28:33.529Z,10.70
2023-05-14T00:31:00.624Z,10.66
2023-05-14T00:33:27.985Z,10.61
2023-05-14T00:35:55.016Z,10.57
2023-05-14T00:38:24.058Z,10.53
2023-05-14T00:40:51.988Z,10.56
2023-05-14T00:43:22.821Z,10.52
2023-05-14T00:45:51.704Z,10.48
2023-05-14T00:48:20.902Z,10.41
2023-05-14T00:50:49.682Z,10.39
2023-05-14T00:53:18.687Z,10.33
2023-05-14T00:55:48.724Z,10.29
2023-05-14T00:58:16.277Z,10.29
2023-05-14T01:00:43.336Z,10.35
2023-05-14T01:03:10.992Z,10.33
2023-05-14T01:06:03.594Z,10.17
2023-05-14T01:08:36.384Z,10.17
2023-05-14T01:11:11.470Z,10.16
2023-05-14T01:13:59.444Z,10.23
2023-05-14T01:16:28.903Z,10.19
2023-05-14T01:18:58.913Z,10.07
2023-05-14T01:21:40.957Z,10.05
2023-05-14T01:24:08.910Z,10.09
2023-05-14T01:26:36.900Z,10.05
2023-05-14T01:29:26.895Z,10.12
2023-05-14T01:31:57.415Z,10.16
2023-05-14T01:34:28.548Z,10.10
2023-05-14T01:36:57.790Z,10.10
2023-05-14T01:39:26.749Z,10.08
2023-05-14T01:41:55.464Z,10.03
2023-05-14T01:44:23.328Z,10.07
2023-05-14T01:46:50.450Z,10.08
2023-05-14T01:49:18.639Z,10.11
2023-05-14T01:51:46.103Z,10.11
2023-05-14T01:54:13.214Z,10.13
2023-05-14T01:56:40.338Z,10.09
2023-05-14T01:59:07.811Z,10.09
2023-05-14T02:01:35.169Z,10.21
2023-05-14T02:04:02.684Z,10.19
2023-05-14T02:06:29.919Z,10.22
2023-05-14T02:08:56.993Z,10.23
2023-05-14T02:11:24.549Z,10.29
2023-05-14T02:13:51.985Z,10.28
2023-05-14T02:16:19.426Z,10.32
2023-05-14T02:18:46.520Z,10.34
2023-05-14T02:21:13.961Z,10.30
2023-05-14T02:23:42.227Z,10.32
2023-05-14T02:26:10.822Z,10.33
2023-05-14T02:28:38.385Z,10.39
2023-05-14T02:31:05.559Z,10.36
2023-05-14T02:33:32.936Z,10.31
2023-05-14T02:36:00.552Z,10.31
2023-05-14T02:38:27.946Z,10.30
2023-05-14T02:40:56.847Z,10.37
2023-05-14T02:43:24.330Z,10.39
2023-05-14T02:45:52.388Z,10.39
2023-05-14T02:48:19.552Z,10.32
2023-05-14T02:50:47.008Z,10.36
2023-05-14T02:53:14.106Z,10.35
2023-05-14T02:55:41.408Z,10.34
2023-05-14T02:58:08.939Z,10.35
2023-05-14T03:00:36.189Z,10.27
2023-05-14T03:03:03.981Z,10.28
2023-05-14T03:05:31.770Z,10.31
2023-05-14T03:07:58.969Z,10.33
2023-05-14T03:10:26.262Z,10.29
2023-05-14T03:12:54.112Z,10.24
2023-05-14T03:15:21.208Z,10.30
2023-05-14T03:17:48.369Z,10.32
2023-05-14T03:20:16.050Z,10.28
2023-05-14T03:22:43.180Z,10.33
2023-05-14T03:25:10.272Z,10.36
2023-05-14T03:27:37.792Z,10.27
2023-05-14T03:30:05.792Z,10.29
2023-05-14T03:32:32.977Z,10.40
2023-05-14T03:35:00.547Z,10.41
2023-05-14T03:37:27.550Z,10.47
2023-05-14T03:39:54.617Z,10.48
2023-05-14T03:42:22.051Z,10.43
2023-05-14T03:44:49.081Z,10.40
2023-05-14T03:47:16.227Z,10.42
2023-05-14T03:49:43.588Z,10.42
2023-05-14T03:52:11.365Z,10.47
2023-05-14T03:54:38.687Z,10.49
2023-05-14T03:57:06.384Z,10.51
2023-05-14T03:59:33.547Z,10.55
2023-05-14T04:02:00.746Z,10.51
2023-05-14T04:04:28.215Z,10.62
2023-05-14T04:06:55.320Z,10.61
2023-05-14T04:09:23.368Z,10.65
2023-05-14T04:11:51.202Z,10.67
2023-05-14T04:14:18.303Z,10.66
2023-05-14T04:16:45.549Z,10.69
2023-05-14T04:19:13.021Z,10.74
2023-05-14T04:21:40.368Z,10.76
2023-05-14T04:24:07.799Z,10.77
2023-05-14T04:26:35.391Z,10.77
2023-05-14T04:29:03.443Z,10.72
2023-05-14T04:31:31.675Z,10.76
2023-05-14T04:33:59.142Z,10.77
2023-05-14T04:36:26.341Z,10.71
2023-05-14T04:38:53.404Z,10.82
2023-05-14T04:41:21.151Z,10.83
2023-05-14T04:43:50.156Z,10.79
2023-05-14T04:46:17.320Z,10.80
2023-05-14T04:48:44.701Z,10.71
2023-05-14T04:51:11.807Z,10.73
2023-05-14T04:53:38.869Z,10.82
2023-05-14T04:56:06.684Z,10.67
2023-05-14T04:58:35.074Z,10.77
2023-05-14T05:01:05.131Z,10.84
2023-05-14T05:03:32.841Z,10.86
2023-05-14T05:06:00.046Z,10.94
2023-05-14T05:08:27.116Z,10.92
2023-05-14T05:10:54.502Z,10.96
2023-05-14T05:13:21.635Z,11.01
2023-05-14T05:15:48.747Z,11.03
2023-05-14T05:18:16.121Z,11.02
2023-05-14T05:20:43.187Z,10.98
2023-05-14T05:23:10.270Z,11.03
2023-05-14T05:25:37.638Z,11.10
2023-05-14T05:28:04.867Z,11.12
2023-05-14T05:30:32.006Z,11.09
2023-05-14T05:32:59.440Z,11.11
2023-05-14T05:35:26.600Z,11.09
2023-05-14T05:37:53.816Z,11.06
2023-05-14T05:40:21.227Z,11.13
2023-05-14T05:42:48.378Z,11.16
2023-05-14T05:45:15.637Z,11.25
2023-05-14T05:47:43.086Z,11.18
2023-05-14T05:50:11.522Z,11.27
2023-05-14T05:52:39.451Z,11.38
2023-05-14T05:55:07.189Z,11.45
2023-05-14T05:57:34.338Z,11.40
2023-05-14T06:00:04.901Z,11.45
2023-05-14T06:02:41.186Z,11.56
2023-05-14T06:05:10.355Z,11.55
2023-05-14T06:07:37.671Z,11.58
2023-05-14T06:10:05.476Z,11.60
2023-05-14T06:12:32.904Z,11.57
2023-05-14T06:14:59.972Z,11.56
2023-05-14T06:17:27.260Z,11.41
2023-05-14T06:19:54.676Z,11.47
2023-05-14T06:22:21.821Z,11.47
2023-05-14T06:24:49.113Z,11.33
2023-05-14T06:27:16.925Z,11.38
2023-05-14T06:29:44.037Z,11.34
2023-05-14T06:32:14.253Z,11.29
2023-05-14T06:34:42.645Z,11.23
2023-05-14T06:37:10.456Z,11.15
2023-05-14T06:39:37.773Z,11.14
2023-05-14T06:42:05.528Z,11.13
2023-05-14T06:44:32.610Z,11.14
2023-05-14T06:46:59.772Z,11.22
2023-05-14T06:49:27.220Z,11.22
2023-05-14T06:51:54.508Z,11.25
2023-05-14T06:54:21.594Z,11.28
2023-05-14T06:56:49.034Z,11.45
2023-05-14T06:59:16.162Z,11.54
2023-05-14T07:01:43.582Z,11.67
2023-05-14T07:04:11.091Z,11.66
2023-05-14T07:06:38.256Z,11.75
2023-05-14T07:09:06.509Z,11.89
2023-05-14T07:11:34.096Z,11.91
2023-05-14T07:14:01.169Z,11.83
2023-05-14T07:16:28.361Z,11.91
2023-05-14T07:18:55.745Z,12.06
2023-05-14T07:21:22.885Z,12.20
2023-05-14T07:23:49.952Z,12.21
2023-05-14T07:26:17.361Z,12.26
2023-05-14T07:28:44.470Z,12.50
2023-05-14T07:31:11.582Z,12.60
2023-05-14T07:33:38.958Z,12.80
2023-05-14T07:36:06.653Z,12.84
2023-05-14T07:38:34.005Z,13.07
2023-05-14T07:41:01.369Z,13.11
2023-05-14T07:43:28.508Z,13.21
2023-05-14T07:45:56.518Z,13.43
2023-05-14T07:48:24.029Z,13.48
2023-05-14T07:50:51.954Z,13.37
2023-05-14T07:53:19.164Z,13.38
2023-05-14T07:55:48.422Z,13.37
2023-05-14T07:58:16.261Z,13.49
2023-05-14T08:00:43.372Z,13.62
2023-05-14T08:03:10.914Z,13.73
2023-05-14T08:05:38.088Z,13.45
2023-05-14T08:08:05.199Z,13.53
2023-05-14T08:10:32.620Z,13.53
2023-05-14T08:12:59.693Z,13.60
2023-05-14T08:15:27.931Z,13.66
2023-05-14T08:17:55.753Z,13.75
2023-05-14T08:20:24.220Z,13.77
2023-05-14T08:22:51.566Z,13.82
2023-05-14T08:25:19.024Z,13.89
2023-05-14T08:27:46.278Z,13.74
2023-05-14T08:30:13.761Z,13.73
2023-05-14T08:32:42.386Z,13.82
2023-05-14T08:35:09.767Z,13.78
2023-05-14T08:37:36.942Z,13.68
2023-05-14T08:40:04.650Z,13.71
2023-05-14T08:42:32.164Z,13.77
2023-05-14T08:45:05.798Z,13.83
2023-05-14T08:47:33.669Z,13.93
2023-05-14T08:50:06.541Z,13.86
2023-05-14T08:52:35.067Z,13.91
2023-05-14T08:55:05.744Z,13.96
2023-05-14T08:57:34.256Z,14.08
2023-05-14T09:00:08.324Z,14.01
2023-05-14T09:02:36.777Z,13.89
2023-05-14T09:05:04.421Z,13.74
2023-05-14T09:07:31.913Z,13.77
2023-05-14T09:09:59.403Z,13.70
2023-05-14T09:12:26.735Z,13.61
2023-05-14T09:14:53.998Z,13.68
2023-05-14T09:17:21.324Z,13.69
2023-05-14T09:19:53.107Z,13.55
2023-05-14T09:22:22.390Z,13.55
2023-05-14T09:25:04.526Z,13.54
2023-05-14T09:27:33.030Z,13.51
2023-05-14T09:30:12.089Z,13.31
2023-05-14T09:32:40.826Z,13.30
2023-05-14T09:35:17.793Z,13.39
2023-05-14T09:37:51.276Z,13.40
2023-05-14T09:40:21.029Z,13.35
2023-05-14T09:42:49.232Z,13.38
2023-05-14T09:45:16.950Z,13.33
2023-05-14T09:47:45.335Z,13.41
2023-05-14T09:50:12.766Z,13.45
2023-05-14T09:52:40.167Z,13.53
2023-05-14T09:55:08.274Z,13.55
2023-05-14T09:57:35.693Z,13.49
2023-05-14T10:00:03.025Z,13.45
2023-05-14T10:02:37.959Z,13.36
2023-05-14T10:05:07.017Z,13.36
2023-05-14T10:07:39.764Z,13.43
2023-05-14T10:10:09.071Z,13.24
2023-05-14T10:12:39.382Z,13.18
2023-05-14T10:15:16.672Z,13.24
2023-05-14T10:17:49.069Z,13.32
2023-05-14T10:20:17.691Z,13.41
2023-05-14T10:22:45.369Z,13.62
2023-05-14T10:25:12.960Z,13.87
2023-05-14T10:27:41.428Z,13.95
2023-05-14T10:30:13.683Z,13.93
2023-05-14T10:32:42.070Z,13.76
2023-05-14T10:35:22.812Z,13.50
2023-05-14T10:37:51.815Z,13.25
2023-05-14T10:40:19.397Z,13.32
2023-05-14T10:42:46.888Z,13.41
2023-05-14T10:45:15.562Z,13.39
2023-05-14T10:47:44.403Z,13.31
2023-05-14T10:50:14.123Z,13.20
2023-05-14T10:52:46.225Z,13.12
2023-05-14T10:55:15.777Z,13.23
2023-05-14T10:57:44.967Z,13.22
2023-05-14T11:00:14.027Z,13.17
2023-05-14T11:02:43.068Z,12.94
2023-05-14T11:05:11.670Z,12.86
2023-05-14T11:07:44.612Z,12.86
2023-05-14T11:10:14.349Z,12.94
2023-05-14T11:12:44.104Z,12.86
2023-05-14T11:15:14.013Z,12.95
2023-05-14T11:17:42.374Z,12.96
2023-05-14T11:20:10.057Z,12.99
2023-05-14T11:22:39.245Z,13.01
2023-05-14T11:25:07.429Z,12.89
2023-05-14T11:27:36.754Z,12.87
2023-05-14T11:30:04.733Z,12.88
2023-05-14T11:32:35.217Z,12.88
2023-05-14T11:35:02.545Z,12.86
2023-05-14T11:37:30.817Z,12.86
2023-05-14T11:40:01.117Z,12.93
2023-05-14T11:42:28.272Z,12.84
2023-05-14T11:44:55.657Z,12.86
2023-05-14T11:47:23.269Z,12.84
2023-05-14T11:49:50.295Z,12.77
2023-05-14T11:52:19.673Z,12.79
2023-05-14T11:54:47.010Z,12.82
2023-05-14T11:57:17.075Z,12.81
2023-05-14T11:59:45.339Z,12.81
2023-05-14T12:02:14.548Z,12.79
2023-05-14T12:04:42.856Z,12.78
2023-05-14T12:07:12.014Z,12.73
2023-05-14T12:09:49.357Z,12.73
2023-05-14T12:12:23.187Z,12.63
2023-05-14T12:14:51.049Z,12.67
2023-05-14T12:17:20.009Z,12.74
2023-05-14T12:19:50.144Z,12.76
2023-05-14T12:22:19.590Z,12.75
2023-05-14T12:24:57.892Z,12.77
2023-05-14T12:27:26.447Z,12.74
2023-05-14T12:30:16.811Z,12.63
2023-05-14T12:32:52.017Z,12.59
2023-05-14T12:35:21.482Z,12.43
2023-05-14T12:37:48.611Z,12.45
2023-05-14T12:40:15.614Z,12.38
2023-05-14T12:42:42.942Z,12.33
2023-05-14T12:45:10.375Z,12.26
2023-05-14T12:47:37.755Z,12.25
2023-05-14T12:50:06.160Z,12.26
2023-05-14T12:52:38.317Z,12.25
2023-05-14T12:55:08.966Z,12.20
2023-05-14T12:57:36.959Z,12.17
2023-05-14T13:00:07.118Z,12.26
2023-05-14T13:02:42.780Z,12.23
2023-05-14T13:05:11.712Z,12.12
2023-05-14T13:07:39.231Z,12.11
2023-05-14T13:10:06.932Z,12.11
2023-05-14T13:12:34.278Z,12.10
2023-05-14T13:15:01.781Z,12.10
2023-05-14T13:17:29.045Z,12.10
2023-05-14T13:19:56.151Z,12.15
2023-05-14T13:22:23.589Z,12.28
2023-05-14T13:24:50.871Z,12.26
2023-05-14T13:27:17.963Z,12.23
2023-05-14T13:29:45.469Z,12.12
2023-05-14T13:32:13.009Z,12.09
2023-05-14T13:34:40.197Z,11.98
2023-05-14T13:37:07.671Z,11.95
2023-05-14T13:39:34.752Z,11.85
2023-05-14T13:42:01.871Z,11.86
2023-05-14T13:44:29.486Z,11.80
2023-05-14T13:46:56.700Z,11.82
2023-05-14T13:49:23.864Z,11.82
2023-05-14T13:51:51.239Z,11.82
2023-05-14T13:54:18.360Z,11.72
2023-05-14T13:56:45.440Z,11.79
2023-05-14T13:59:12.905Z,11.77
2023-05-14T14:01:40.067Z,11.81
2023-05-14T14:04:07.458Z,11.77
2023-05-14T14:06:34.587Z,11.78
2023-05-14T14:09:01.835Z,11.73
2023-05-14T14:11:29.343Z,11.76
2023-05-14T14:13:56.456Z,11.87
2023-05-14T14:16:23.562Z,11.87
2023-05-14T14:18:50.929Z,11.89
2023-05-14T14:21:18.497Z,11.92
2023-05-14T14:23:46.784Z,11.92
2023-05-14T14:26:14.432Z,11.97
2023-05-14T14:28:41.620Z,12.01
2023-05-14T14:31:08.761Z,11.97
2023-05-14T14:33:36.321Z,11.99
2023-05-14T14:36:03.524Z,12.04
2023-05-14T14:38:30.534Z,12.02
2023-05-14T14:40:58.206Z,12.00
2023-05-14T14:43:25.237Z,12.04
2023-05-14T14:45:52.263Z,11.99
2023-05-14T14:48:34.036Z,12.04
2023-05-14T14:51:01.594Z,12.02
2023-05-14T14:53:28.977Z,12.02
2023-05-14T14:55:56.984Z,11.92
2023-05-14T14:58:24.802Z,11.99
2023-05-14T15:00:54.738Z,11.96
2023-05-14T15:03:22.399Z,11.95
2023-05-14T15:05:49.991Z,11.90
2023-05-14T15:08:17.454Z,11.80
2023-05-14T15:10:45.787Z,11.73
2023-05-14T15:13:12.842Z,11.66
2023-05-14T15:15:40.179Z,11.65
2023-05-14T15:18:10.218Z,11.62
2023-05-14T15:20:37.687Z,11.61
2023-05-14T15:23:05.120Z,11.60
2023-05-14T15:25:32.208Z,11.63
2023-05-14T15:27:59.369Z,11.56
2023-05-14T15:30:26.791Z,11.55
2023-05-14T15:32:53.923Z,11.61
2023-05-14T15:35:21.009Z,11.57
2023-05-14T15:37:48.289Z,11.54
2023-05-14T15:40:15.457Z,11.43
2023-05-14T15:42:43.867Z,11.44
2023-05-14T15:45:12.825Z,11.37
2023-05-14T15:47:41.057Z,11.39
2023-05-14T15:50:08.616Z,11.38
2023-05-14T15:52:36.535Z,11.33
2023-05-14T15:55:05.142Z,11.45
2023-05-14T15:57:32.407Z,11.45
2023-05-14T16:00:00.018Z,11.40
2023-05-14T16:02:30.293Z,11.39
2023-05-14T16:04:57.852Z,11.41
2023-05-14T16:07:25.003Z,11.41
2023-05-14T16:09:52.107Z,11.40
2023-05-14T16:12:19.490Z,11.41
2023-05-14T16:14:46.602Z,11.40
2023-05-14T16:17:13.774Z,11.37
2023-05-14T16:19:41.718Z,11.39
2023-05-14T16:22:08.805Z,11.40
2023-05-14T16:24:36.224Z,11.36
2023-05-14T16:27:03.989Z,11.30
2023-05-14T16:29:31.314Z,11.30
2023-05-14T16:31:58.714Z,11.27
2023-05-14T16:34:26.198Z,11.38
2023-05-14T16:36:53.509Z,11.34
2023-05-14T16:39:20.755Z,11.33
2023-05-14T16:41:51.146Z,11.33
2023-05-14T16:44:18.154Z,11.29
2023-05-14T16:46:45.238Z,11.34
2023-05-14T16:49:12.553Z,11.33
2023-05-14T16:51:43.036Z,11.35
2023-05-14T16:54:10.176Z,11.40
2023-05-14T16:56:37.658Z,11.30
2023-05-14T16:59:04.808Z,11.28
2023-05-14T17:01:32.379Z,11.33
2023-05-14T17:03:59.794Z,11.28
2023-05-14T17:06:26.912Z,11.34
2023-05-14T17:08:54.031Z,11.35
2023-05-14T17:11:21.457Z,11.34
2023-05-14T17:13:48.614Z,11.33
2023-05-14T17:16:16.133Z,11.36
2023-05-14T17:18:43.809Z,11.41
2023-05-14T17:21:11.011Z,11.36
2023-05-14T17:23:38.242Z,11.39
2023-05-14T17:26:05.752Z,11.35
2023-05-14T17:28:33.443Z,11.30
2023-05-14T17:31:00.575Z,11.35
2023-05-14T17:33:28.722Z,11.38
2023-05-14T17:35:56.109Z,11.43
2023-05-14T17:38:24.790Z,11.40
2023-05-14T17:40:52.216Z,11.44
2023-05-14T17:43:19.295Z,11.40
2023-05-14T17:45:53.906Z,11.36
2023-05-14T17:48:23.984Z,11.33
2023-05-14T17:50:54.538Z,11.29
2023-05-14T17:53:22.414Z,11.25
2023-05-14T17:55:50.189Z,11.23
2023-05-14T17:58:17.380Z,11.22
2023-05-14T18:00:44.829Z,11.21
2023-05-14T18:03:14.197Z,11.27
2023-05-14T18:05:41.425Z,11.24
2023-05-14T18:08:09.547Z,11.24
2023-05-14T18:10:37.052Z,11.24
2023-05-14T18:13:06.618Z,11.32
2023-05-14T18:15:33.696Z,11.29
2023-05-14T18:18:01.134Z,11.25
2023-05-14T18:20:28.189Z,11.38
2023-05-14T18:22:55.149Z,11.42
2023-05-14T18:25:22.707Z,11.40
2023-05-14T18:27:50.126Z,11.41
2023-05-14T18:30:17.253Z,11.45
2023-05-14T18:32:45.079Z,11.41
2023-05-14T18:35:13.708Z,11.50
2023-05-14T18:37:41.243Z,11.47
2023-05-14T18:40:09.200Z,11.49
2023-05-14T18:42:36.368Z,11.49
2023-05-14T18:45:04.168Z,11.51
2023-05-14T18:47:32.770Z,11.51
2023-05-14T18:50:01.800Z,11.51
2023-05-14T18:52:29.391Z,11.49
2023-05-14T18:54:56.876Z,11.47
2023-05-14T18:57:25.619Z,11.41
2023-05-14T18:59:52.814Z,11.48
2023-05-14T19:02:20.454Z,11.45
2023-05-14T19:04:53.016Z,11.47
2023-05-14T19:07:21.355Z,11.50
2023-05-14T19:09:49.174Z,11.50
2023-05-14T19:12:16.293Z,11.50
2023-05-14T19:14:43.823Z,11.48
2023-05-14T19:17:11.355Z,11.49
2023-05-14T19:19:39.321Z,11.46
2023-05-14T19:22:06.855Z,11.40
2023-05-14T19:24:34.165Z,11.47
2023-05-14T19:27:01.295Z,11.50
2023-05-14T19:29:28.792Z,11.51
2023-05-14T19:31:56.033Z,11.49
2023-05-14T19:34:23.234Z,11.58
2023-05-14T19:36:50.810Z,11.54
2023-05-14T19:39:17.883Z,11.59
2023-05-14T19:41:45.091Z,11.58
2023-05-14T19:44:12.494Z,11.54
2023-05-14T19:46:39.697Z,11.61
2023-05-14T19:49:06.856Z,11.59
2023-05-14T19:51:34.267Z,11.61
2023-05-14T19:54:01.356Z,11.63
2023-05-14T19:56:28.517Z,11.64
2023-05-14T19:58:55.932Z,11.71
2023-05-14T20:01:23.142Z,11.67
2023-05-14T20:03:50.625Z,11.72
2023-05-14T20:06:18.441Z,11.71
2023-05-14T20:08:45.666Z,11.79
2023-05-14T20:11:14.861Z,11.75
2023-05-14T20:13:42.006Z,11.77
2023-05-14T20:16:09.197Z,11.65
2023-05-14T20:18:36.770Z,11.73
2023-05-14T20:21:04.101Z,11.70
2023-05-14T20:23:32.283Z,11.71
2023-05-14T20:26:01.856Z,11.79
2023-05-14T20:28:29.078Z,11.81
2023-05-14T20:30:58.771Z,11.84
2023-05-14T20:33:27.082Z,11.82
2023-05-14T20:35:54.138Z,11.79
2023-05-14T20:38:21.713Z,11.79
2023-05-14T20:40:49.239Z,11.85
2023-05-14T20:43:16.406Z,11.85
2023-05-14T20:45:43.526Z,11.83
2023-05-14T20:48:12.876Z,11.81
2023-05-14T20:50:39.940Z,11.74
2023-05-14T20:53:07.091Z,11.70
2023-05-14T20:55:34.578Z,11.80
2023-05-14T20:58:01.758Z,11.79
2023-05-14T21:00:28.832Z,11.66
2023-05-14T21:02:56.683Z,11.71
2023-05-14T21:05:24.234Z,11.73
2023-05-14T21:07:51.628Z,11.81
2023-05-14T21:10:19.057Z,11.81
2023-05-14T21:12:46.143Z,11.74
2023-05-14T21:15:13.276Z,11.82
2023-05-14T21:17:40.840Z,11.82
2023-05-14T21:20:08.497Z,11.79
2023-05-14T21:22:35.632Z,11.78
2023-05-14T21:25:03.344Z,11.78
2023-05-14T21:27:30.578Z,11.81
2023-05-14T21:29:57.637Z,11.77
2023-05-14T21:32:25.648Z,11.71
2023-05-14T21:34:52.804Z,11.74
2023-05-14T21:37:21.501Z,11.81
2023-05-14T21:39:48.896Z,11.77
2023-05-14T21:42:16.332Z,11.73
2023-05-14T21:44:43.428Z,11.75
2023-05-14T21:47:11.458Z,11.74
2023-05-14T21:49:38.526Z,11.72
2023-05-14T21:52:05.697Z,11.79
2023-05-14T21:54:33.049Z,11.84
2023-05-14T21:57:01.527Z,11.82
2023-05-14T21:59:28.565Z,11.84
2023-05-14T22:02:06.893Z,11.77
2023-05-14T22:04:35.355Z,11.83
2023-05-14T22:07:03.248Z,11.85
2023-05-14T22:09:30.552Z,11.82
2023-05-14T22:11:58.370Z,11.83
2023-05-14T22:14:27.282Z,11.89
2023-05-14T22:16:54.556Z,11.86
2023-05-14T22:19:22.409Z,11.87
2023-05-14T22:21:49.495Z,11.86
2023-05-14T22:24:16.485Z,11.92
2023-05-14T22:26:43.980Z,11.93
2023-05-14T22:29:11.028Z,11.94
2023-05-14T22:31:38.205Z,11.89
2023-05-14T22:34:05.559Z,11.91
2023-05-14T22:36:32.700Z,11.85
2023-05-14T22:38:59.697Z,11.81
2023-05-14T22:41:26.953Z,11.86
2023-05-14T22:43:54.035Z,11.91
2023-05-14T22:46:21.364Z,11.87
2023-05-14T22:48:49.317Z,11.91
2023-05-14T22:51:16.668Z,11.92
2023-05-14T22:53:43.858Z,11.94
2023-05-14T22:56:11.289Z,12.06
2023-05-14T22:58:38.325Z,12.08
2023-05-14T23:01:05.619Z,12.02
2023-05-14T23:03:32.896Z,12.05
2023-05-14T23:05:59.945Z,12.02
2023-05-14T23:08:27.001Z,12.01
2023-05-14T23:10:54.313Z,12.00
2023-05-14T23:13:21.277Z,12.10
2023-05-14T23:15:48.803Z,12.06
2023-05-14T23:18:16.122Z,12.11
2023-05-14T23:20:43.774Z,12.07
2023-05-14T23:23:11.287Z,12.04
2023-05-14T23:25:38.566Z,12.05
2023-05-14T23:28:05.664Z,11.97
2023-05-14T23:30:32.710Z,11.99
2023-05-14T23:33:00.216Z,12.03
2023-05-14T23:35:27.480Z,12.06
2023-05-14T23:37:55.563Z,12.07
2023-05-14T23:40:22.994Z,12.00
2023-05-14T23:42:50.594Z,12.01
2023-05-14T23:45:17.780Z,11.92
2023-05-14T23:47:45.414Z,11.87
2023-05-14T23:50:12.473Z,11.91
2023-05-14T23:52:39.521Z,11.81
2023-05-14T23:55:07.052Z,11.93
2023-05-14T23:57:34.062Z,11.94
